sensor_id;sensor_type;location;lat;lon;timestamp;pressure;altitude;pressure_sealevel;temperature;humidity
58072;BME280;60383;46.626;18.866;2022-10-16T00:01:10;100892.13;;;14.33;63.53
58072;BME280;60383;46.626;18.866;2022-10-16T00:03:40;100893.31;;;14.38;63.25
58072;BME280;60383;46.626;18.866;2022-10-16T00:06:08;100888.50;;;14.41;63.15
58072;BME280;60383;46.626;18.866;2022-10-16T00:08:35;100880.75;;;14.36;63.15
58072;BME280;60383;46.626;18.866;2022-10-16T00:13:41;100881.25;;;14.31;63.49
58072;BME280;60383;46.626;18.866;2022-10-16T00:16:08;100887.09;;;14.20;63.08
58072;BME280;60383;46.626;18.866;2022-10-16T00:18:34;100882.09;;;14.15;63.34
58072;BME280;60383;46.626;18.866;2022-10-16T00:21:04;100894.94;;;13.90;63.34
58072;BME280;60383;46.626;18.866;2022-10-16T00:23:30;100901.16;;;13.92;63.81
58072;BME280;60383;46.626;18.866;2022-10-16T00:26:01;100900.84;;;13.95;63.46
58072;BME280;60383;46.626;18.866;2022-10-16T00:28:27;100893.59;;;13.94;63.62
58072;BME280;60383;46.626;18.866;2022-10-16T00:30:53;100898.06;;;13.87;63.44
58072;BME280;60383;46.626;18.866;2022-10-16T00:33:18;100890.47;;;13.81;63.62
58072;BME280;60383;46.626;18.866;2022-10-16T00:35:44;100894.44;;;13.86;63.70
58072;BME280;60383;46.626;18.866;2022-10-16T00:38:09;100897.59;;;13.49;64.40
58072;BME280;60383;46.626;18.866;2022-10-16T00:40:35;100890.88;;;13.51;64.74
58072;BME280;60383;46.626;18.866;2022-10-16T00:43:00;100902.69;;;13.44;64.79
58072;BME280;60383;46.626;18.866;2022-10-16T00:45:26;100905.22;;;13.37;65.00
58072;BME280;60383;46.626;18.866;2022-10-16T00:47:52;100906.81;;;13.39;65.23
58072;BME280;60383;46.626;18.866;2022-10-16T00:50:28;100915.41;;;13.10;65.62
58072;BME280;60383;46.626;18.866;2022-10-16T00:52:55;100915.41;;;13.10;65.78
58072;BME280;60383;46.626;18.866;2022-10-16T00:55:21;100927.00;;;12.77;66.48
58072;BME280;60383;46.626;18.866;2022-10-16T00:57:48;100922.38;;;12.78;67.02
58072;BME280;60383;46.626;18.866;2022-10-16T01:00:21;100918.06;;;12.75;67.00
58072;BME280;60383;46.626;18.866;2022-10-16T01:02:58;100920.69;;;12.59;67.10
58072;BME280;60383;46.626;18.866;2022-10-16T01:05:41;100929.94;;;12.40;68.41
58072;BME280;60383;46.626;18.866;2022-10-16T01:08:15;100932.16;;;12.36;68.17
58072;BME280;60383;46.626;18.866;2022-10-16T01:10:52;100919.91;;;12.49;68.21
58072;BME280;60383;46.626;18.866;2022-10-16T01:13:24;100928.84;;;12.33;68.18
58072;BME280;60383;46.626;18.866;2022-10-16T01:16:00;100924.53;;;12.48;67.89
58072;BME280;60383;46.626;18.866;2022-10-16T01:18:39;100936.09;;;12.52;67.84
58072;BME280;60383;46.626;18.866;2022-10-16T01:21:22;100933.09;;;12.45;67.54
58072;BME280;60383;46.626;18.866;2022-10-16T01:29:18;100942.25;;;12.36;68.00
58072;BME280;60383;46.626;18.866;2022-10-16T01:31:49;100943.41;;;12.15;68.19
58072;BME280;60383;46.626;18.866;2022-10-16T01:34:21;100941.50;;;12.43;67.47
58072;BME280;60383;46.626;18.866;2022-10-16T01:37:02;100939.53;;;12.18;68.26
58072;BME280;60383;46.626;18.866;2022-10-16T01:39:31;100929.94;;;12.22;68.24
58072;BME280;60383;46.626;18.866;2022-10-16T01:42:08;100934.97;;;12.44;67.55
58072;BME280;60383;46.626;18.866;2022-10-16T01:44:35;100928.69;;;12.52;68.55
58072;BME280;60383;46.626;18.866;2022-10-16T01:47:03;100942.81;;;12.57;68.13
58072;BME280;60383;46.626;18.866;2022-10-16T01:49:34;100943.22;;;12.44;67.66
58072;BME280;60383;46.626;18.866;2022-10-16T01:52:05;100944.00;;;12.55;67.90
58072;BME280;60383;46.626;18.866;2022-10-16T01:54:33;100943.69;;;12.40;68.05
58072;BME280;60383;46.626;18.866;2022-10-16T01:57:01;100944.31;;;12.52;67.96
58072;BME280;60383;46.626;18.866;2022-10-16T01:59:31;100945.25;;;12.42;67.72
58072;BME280;60383;46.626;18.866;2022-10-16T02:02:01;100954.59;;;12.50;67.44
58072;BME280;60383;46.626;18.866;2022-10-16T02:04:36;100945.16;;;12.52;67.60
58072;BME280;60383;46.626;18.866;2022-10-16T02:07:02;100953.19;;;12.45;67.55
58072;BME280;60383;46.626;18.866;2022-10-16T02:09:30;100954.91;;;12.46;67.32
58072;BME280;60383;46.626;18.866;2022-10-16T02:12:02;100965.94;;;12.19;68.31
58072;BME280;60383;46.626;18.866;2022-10-16T02:14:29;100967.47;;;12.31;67.97
58072;BME280;60383;46.626;18.866;2022-10-16T02:16:55;100958.28;;;12.40;67.40
58072;BME280;60383;46.626;18.866;2022-10-16T02:19:21;100970.03;;;12.14;69.08
58072;BME280;60383;46.626;18.866;2022-10-16T02:21:59;100962.44;;;12.26;68.11
58072;BME280;60383;46.626;18.866;2022-10-16T02:24:43;100968.09;;;12.25;68.29
58072;BME280;60383;46.626;18.866;2022-10-16T02:29:55;100961.34;;;12.37;68.10
58072;BME280;60383;46.626;18.866;2022-10-16T02:32:26;100957.97;;;12.43;68.19
58072;BME280;60383;46.626;18.866;2022-10-16T02:34:54;100959.00;;;12.42;68.78
58072;BME280;60383;46.626;18.866;2022-10-16T02:37:20;100963.47;;;12.43;68.37
58072;BME280;60383;46.626;18.866;2022-10-16T02:39:45;100963.31;;;12.45;68.25
58072;BME280;60383;46.626;18.866;2022-10-16T02:42:15;100967.78;;;12.46;68.11
58072;BME280;60383;46.626;18.866;2022-10-16T02:44:40;100967.41;;;12.41;68.62
58072;BME280;60383;46.626;18.866;2022-10-16T02:47:06;100978.28;;;12.33;70.16
58072;BME280;60383;46.626;18.866;2022-10-16T02:49:31;100977.84;;;12.37;71.06
58072;BME280;60383;46.626;18.866;2022-10-16T02:51:57;100975.38;;;12.34;71.75
58072;BME280;60383;46.626;18.866;2022-10-16T02:54:22;100978.50;;;12.39;72.24
58072;BME280;60383;46.626;18.866;2022-10-16T02:56:47;100983.22;;;12.29;72.92
58072;BME280;60383;46.626;18.866;2022-10-16T02:59:13;100985.34;;;12.35;72.82
58072;BME280;60383;46.626;18.866;2022-10-16T03:01:38;100987.72;;;12.30;72.94
58072;BME280;60383;46.626;18.866;2022-10-16T03:04:04;100985.44;;;12.25;72.91
58072;BME280;60383;46.626;18.866;2022-10-16T03:06:29;100989.03;;;12.26;73.00
58072;BME280;60383;46.626;18.866;2022-10-16T03:08:54;100988.78;;;12.19;73.30
58072;BME280;60383;46.626;18.866;2022-10-16T03:11:20;100985.66;;;12.14;73.74
58072;BME280;60383;46.626;18.866;2022-10-16T03:13:45;100998.56;;;12.04;73.61
58072;BME280;60383;46.626;18.866;2022-10-16T03:16:11;100999.00;;;11.99;72.67
58072;BME280;60383;46.626;18.866;2022-10-16T03:18:36;100992.13;;;11.85;73.20
58072;BME280;60383;46.626;18.866;2022-10-16T03:21:02;101000.41;;;11.75;73.47
58072;BME280;60383;46.626;18.866;2022-10-16T03:23:27;100996.94;;;11.73;73.92
58072;BME280;60383;46.626;18.866;2022-10-16T03:25:53;100989.72;;;11.72;73.92
58072;BME280;60383;46.626;18.866;2022-10-16T03:28:19;100991.63;;;11.72;74.26
58072;BME280;60383;46.626;18.866;2022-10-16T03:30:44;100997.66;;;11.75;73.47
58072;BME280;60383;46.626;18.866;2022-10-16T03:33:10;100998.53;;;11.76;72.38
58072;BME280;60383;46.626;18.866;2022-10-16T03:35:35;100998.13;;;11.71;73.26
58072;BME280;60383;46.626;18.866;2022-10-16T03:38:00;100999.25;;;11.78;73.61
58072;BME280;60383;46.626;18.866;2022-10-16T03:40:26;101000.56;;;11.74;73.17
58072;BME280;60383;46.626;18.866;2022-10-16T03:42:51;101010.72;;;11.63;74.06
58072;BME280;60383;46.626;18.866;2022-10-16T03:45:18;101003.81;;;11.59;75.04
58072;BME280;60383;46.626;18.866;2022-10-16T03:47:43;101006.69;;;11.58;75.87
58072;BME280;60383;46.626;18.866;2022-10-16T03:50:08;101016.34;;;11.62;75.25
58072;BME280;60383;46.626;18.866;2022-10-16T03:52:34;101020.22;;;11.69;75.13
58072;BME280;60383;46.626;18.866;2022-10-16T03:54:59;101017.75;;;11.66;75.04
58072;BME280;60383;46.626;18.866;2022-10-16T03:57:25;101021.53;;;11.65;74.95
58072;BME280;60383;46.626;18.866;2022-10-16T03:59:50;101026.59;;;11.60;74.48
58072;BME280;60383;46.626;18.866;2022-10-16T04:02:16;101013.94;;;11.49;74.36
58072;BME280;60383;46.626;18.866;2022-10-16T04:04:41;101026.06;;;11.46;74.42
58072;BME280;60383;46.626;18.866;2022-10-16T04:07:07;101027.81;;;11.38;74.47
58072;BME280;60383;46.626;18.866;2022-10-16T04:09:32;101025.78;;;11.40;74.70
58072;BME280;60383;46.626;18.866;2022-10-16T04:11:57;101027.06;;;11.45;74.58
58072;BME280;60383;46.626;18.866;2022-10-16T04:14:23;101030.28;;;11.31;75.11
58072;BME280;60383;46.626;18.866;2022-10-16T04:16:48;101025.97;;;11.18;76.03
58072;BME280;60383;46.626;18.866;2022-10-16T04:19:13;101027.53;;;11.31;75.55
58072;BME280;60383;46.626;18.866;2022-10-16T04:21:39;101022.06;;;11.21;75.74
58072;BME280;60383;46.626;18.866;2022-10-16T04:24:04;101027.28;;;11.24;75.70
58072;BME280;60383;46.626;18.866;2022-10-16T04:26:30;101024.56;;;11.14;76.21
58072;BME280;60383;46.626;18.866;2022-10-16T04:28:55;101021.94;;;11.13;76.18
58072;BME280;60383;46.626;18.866;2022-10-16T04:31:21;101015.16;;;11.17;75.44
58072;BME280;60383;46.626;18.866;2022-10-16T04:33:46;101024.00;;;11.01;76.10
58072;BME280;60383;46.626;18.866;2022-10-16T04:36:12;101035.38;;;11.16;75.89
58072;BME280;60383;46.626;18.866;2022-10-16T04:38:38;101033.50;;;11.07;76.57
58072;BME280;60383;46.626;18.866;2022-10-16T04:41:05;101029.75;;;11.08;76.55
58072;BME280;60383;46.626;18.866;2022-10-16T04:43:31;101036.38;;;11.05;76.54
58072;BME280;60383;46.626;18.866;2022-10-16T04:45:57;101034.94;;;11.11;75.94
58072;BME280;60383;46.626;18.866;2022-10-16T04:48:22;101044.19;;;11.00;76.18
58072;BME280;60383;46.626;18.866;2022-10-16T04:50:48;101038.72;;;11.00;76.49
58072;BME280;60383;46.626;18.866;2022-10-16T04:53:13;101047.22;;;10.97;77.27
58072;BME280;60383;46.626;18.866;2022-10-16T04:55:39;101042.47;;;10.79;77.79
58072;BME280;60383;46.626;18.866;2022-10-16T04:58:06;101039.41;;;10.92;77.71
58072;BME280;60383;46.626;18.866;2022-10-16T05:00:32;101040.28;;;10.93;77.18
58072;BME280;60383;46.626;18.866;2022-10-16T05:02:58;101040.28;;;10.93;76.67
58072;BME280;60383;46.626;18.866;2022-10-16T05:05:26;101041.88;;;10.85;76.46
58072;BME280;60383;46.626;18.866;2022-10-16T05:07:51;101045.19;;;10.89;76.66
58072;BME280;60383;46.626;18.866;2022-10-16T05:10:17;101047.38;;;10.85;76.41
58072;BME280;60383;46.626;18.866;2022-10-16T05:12:42;101045.91;;;10.81;76.22
58072;BME280;60383;46.626;18.866;2022-10-16T05:15:08;101061.50;;;10.71;76.42
58072;BME280;60383;46.626;18.866;2022-10-16T05:17:33;101066.38;;;10.67;76.03
58072;BME280;60383;46.626;18.866;2022-10-16T05:19:59;101063.81;;;10.76;75.53
58072;BME280;60383;46.626;18.866;2022-10-16T05:22:24;101060.19;;;10.85;75.53
58072;BME280;60383;46.626;18.866;2022-10-16T05:24:50;101058.91;;;10.89;75.55
58072;BME280;60383;46.626;18.866;2022-10-16T05:27:15;101063.50;;;10.89;75.06
58072;BME280;60383;46.626;18.866;2022-10-16T05:29:45;101065.69;;;11.05;74.56
58072;BME280;60383;46.626;18.866;2022-10-16T05:32:12;101068.69;;;11.01;74.68
58072;BME280;60383;46.626;18.866;2022-10-16T05:34:38;101070.00;;;10.88;74.97
58072;BME280;60383;46.626;18.866;2022-10-16T05:37:04;101073.44;;;10.70;76.04
58072;BME280;60383;46.626;18.866;2022-10-16T05:39:29;101075.19;;;10.91;75.74
58072;BME280;60383;46.626;18.866;2022-10-16T05:41:55;101071.28;;;11.03;75.72
58072;BME280;60383;46.626;18.866;2022-10-16T05:44:20;101068.84;;;11.10;75.81
58072;BME280;60383;46.626;18.866;2022-10-16T05:46:46;101079.81;;;11.19;74.77
58072;BME280;60383;46.626;18.866;2022-10-16T05:49:12;101082.25;;;11.32;74.03
58072;BME280;60383;46.626;18.866;2022-10-16T05:51:37;101085.00;;;11.32;73.59
58072;BME280;60383;46.626;18.866;2022-10-16T05:54:03;101088.44;;;11.34;72.78
58072;BME280;60383;46.626;18.866;2022-10-16T05:56:28;101088.69;;;11.61;71.58
58072;BME280;60383;46.626;18.866;2022-10-16T05:58:54;101102.84;;;11.56;71.07
58072;BME280;60383;46.626;18.866;2022-10-16T06:01:19;101097.03;;;11.79;71.36
58072;BME280;60383;46.626;18.866;2022-10-16T06:04:03;101104.56;;;11.67;71.92
58072;BME280;60383;46.626;18.866;2022-10-16T06:06:29;101104.97;;;11.72;69.64
58072;BME280;60383;46.626;18.866;2022-10-16T06:08:56;101111.69;;;12.35;68.43
58072;BME280;60383;46.626;18.866;2022-10-16T06:11:28;101120.66;;;13.01;66.09
58072;BME280;60383;46.626;18.866;2022-10-16T06:14:00;101116.66;;;13.32;65.75
58072;BME280;60383;46.626;18.866;2022-10-16T06:16:27;101124.59;;;13.53;63.96
58072;BME280;60383;46.626;18.866;2022-10-16T06:18:55;101131.84;;;13.18;65.35
58072;BME280;60383;46.626;18.866;2022-10-16T06:21:25;101128.50;;;12.32;67.22
58072;BME280;60383;46.626;18.866;2022-10-16T06:23:51;101129.63;;;12.85;65.81
58072;BME280;60383;46.626;18.866;2022-10-16T06:26:19;101131.28;;;12.96;65.04
58072;BME280;60383;46.626;18.866;2022-10-16T06:28:45;101136.69;;;12.70;65.87
58072;BME280;60383;46.626;18.866;2022-10-16T06:31:11;101132.00;;;13.34;64.33
58072;BME280;60383;46.626;18.866;2022-10-16T06:33:37;101133.72;;;13.53;63.36
58072;BME280;60383;46.626;18.866;2022-10-16T06:36:08;101132.06;;;13.42;63.27
58072;BME280;60383;46.626;18.866;2022-10-16T06:38:34;101137.25;;;13.27;64.16
58072;BME280;60383;46.626;18.866;2022-10-16T06:41:00;101139.38;;;13.16;63.91
58072;BME280;60383;46.626;18.866;2022-10-16T06:43:27;101143.63;;;12.92;65.18
58072;BME280;60383;46.626;18.866;2022-10-16T06:45:56;101151.41;;;12.13;66.87
58072;BME280;60383;46.626;18.866;2022-10-16T06:48:23;101159.81;;;12.67;66.29
58072;BME280;60383;46.626;18.866;2022-10-16T06:51:06;101155.44;;;12.74;66.96
58072;BME280;60383;46.626;18.866;2022-10-16T06:53:35;101150.16;;;13.09;65.90
58072;BME280;60383;46.626;18.866;2022-10-16T06:56:14;101148.97;;;13.12;65.36
58072;BME280;60383;46.626;18.866;2022-10-16T06:58:41;101148.13;;;13.11;65.90
58072;BME280;60383;46.626;18.866;2022-10-16T07:01:07;101146.78;;;13.15;66.29
58072;BME280;60383;46.626;18.866;2022-10-16T07:03:35;101146.31;;;13.20;65.65
58072;BME280;60383;46.626;18.866;2022-10-16T07:06:04;101154.38;;;13.21;66.13
58072;BME280;60383;46.626;18.866;2022-10-16T07:08:34;101155.50;;;13.65;65.17
58072;BME280;60383;46.626;18.866;2022-10-16T07:11:06;101154.22;;;14.03;62.84
58072;BME280;60383;46.626;18.866;2022-10-16T07:13:36;101169.97;;;13.93;63.18
58072;BME280;60383;46.626;18.866;2022-10-16T07:16:08;101164.94;;;14.49;61.74
58072;BME280;60383;46.626;18.866;2022-10-16T07:18:34;101164.13;;;14.57;61.50
58072;BME280;60383;46.626;18.866;2022-10-16T07:21:08;101175.44;;;14.46;62.87
58072;BME280;60383;46.626;18.866;2022-10-16T07:23:33;101178.78;;;14.23;62.18
58072;BME280;60383;46.626;18.866;2022-10-16T07:25:59;101181.97;;;14.36;62.75
58072;BME280;60383;46.626;18.866;2022-10-16T07:28:24;101185.59;;;14.72;61.85
58072;BME280;60383;46.626;18.866;2022-10-16T07:30:50;101180.47;;;14.93;61.25
58072;BME280;60383;46.626;18.866;2022-10-16T07:33:15;101183.91;;;14.79;61.56
58072;BME280;60383;46.626;18.866;2022-10-16T07:35:54;101184.34;;;15.17;60.99
58072;BME280;60383;46.626;18.866;2022-10-16T07:38:20;101185.06;;;15.44;58.77
58072;BME280;60383;46.626;18.866;2022-10-16T07:40:46;101193.66;;;15.16;60.20
58072;BME280;60383;46.626;18.866;2022-10-16T07:43:12;101190.94;;;15.65;58.81
58072;BME280;60383;46.626;18.866;2022-10-16T07:45:49;101199.25;;;15.74;58.84
58072;BME280;60383;46.626;18.866;2022-10-16T07:48:16;101200.09;;;15.66;57.90
58072;BME280;60383;46.626;18.866;2022-10-16T07:50:42;101200.63;;;15.61;57.80
58072;BME280;60383;46.626;18.866;2022-10-16T07:53:08;101206.09;;;15.28;59.12
58072;BME280;60383;46.626;18.866;2022-10-16T07:55:33;101206.47;;;15.67;58.46
58072;BME280;60383;46.626;18.866;2022-10-16T07:57:59;101202.16;;;15.72;58.32
58072;BME280;60383;46.626;18.866;2022-10-16T08:00:24;101203.03;;;15.97;57.43
58072;BME280;60383;46.626;18.866;2022-10-16T08:02:50;101206.47;;;15.58;58.35
58072;BME280;60383;46.626;18.866;2022-10-16T08:05:15;101213.41;;;15.87;58.11
58072;BME280;60383;46.626;18.866;2022-10-16T08:07:40;101217.69;;;16.31;57.40
58072;BME280;60383;46.626;18.866;2022-10-16T08:10:06;101209.53;;;16.38;57.01
58072;BME280;60383;46.626;18.866;2022-10-16T08:12:32;101216.97;;;16.85;55.24
58072;BME280;60383;46.626;18.866;2022-10-16T08:14:57;101219.66;;;16.62;56.31
58072;BME280;60383;46.626;18.866;2022-10-16T08:17:22;101218.72;;;17.18;54.01
58072;BME280;60383;46.626;18.866;2022-10-16T08:19:48;101214.25;;;17.17;53.46
58072;BME280;60383;46.626;18.866;2022-10-16T08:22:14;101229.19;;;17.39;53.59
58072;BME280;60383;46.626;18.866;2022-10-16T08:24:40;101229.88;;;16.53;55.14
58072;BME280;60383;46.626;18.866;2022-10-16T08:27:06;101228.75;;;16.79;54.88
58072;BME280;60383;46.626;18.866;2022-10-16T08:29:32;101239.53;;;17.14;54.80
58072;BME280;60383;46.626;18.866;2022-10-16T08:31:58;101237.31;;;17.64;52.86
58072;BME280;60383;46.626;18.866;2022-10-16T08:34:23;101245.06;;;17.92;51.85
58072;BME280;60383;46.626;18.866;2022-10-16T08:36:49;101238.53;;;17.84;51.82
58072;BME280;60383;46.626;18.866;2022-10-16T08:39:15;101242.75;;;18.18;51.21
58072;BME280;60383;46.626;18.866;2022-10-16T08:41:55;101244.44;;;18.43;50.90
58072;BME280;60383;46.626;18.866;2022-10-16T08:47:25;101244.34;;;18.66;50.08
58072;BME280;60383;46.626;18.866;2022-10-16T08:50:12;101252.75;;;18.58;50.35
58072;BME280;60383;46.626;18.866;2022-10-16T08:52:43;101255.53;;;18.58;51.43
58072;BME280;60383;46.626;18.866;2022-10-16T08:55:43;101248.06;;;18.88;49.64
58072;BME280;60383;46.626;18.866;2022-10-16T08:58:15;101250.66;;;19.05;49.13
58072;BME280;60383;46.626;18.866;2022-10-16T09:00:44;101257.75;;;19.07;49.17
58072;BME280;60383;46.626;18.866;2022-10-16T09:03:29;101252.75;;;19.18;48.64
58072;BME280;60383;46.626;18.866;2022-10-16T09:06:19;101249.03;;;19.47;48.15
58072;BME280;60383;46.626;18.866;2022-10-16T09:19:53;101247.25;;;19.61;48.08
58072;BME280;60383;46.626;18.866;2022-10-16T09:22:25;101244.69;;;19.81;47.27
58072;BME280;60383;46.626;18.866;2022-10-16T09:24:54;101247.94;;;19.63;48.84
58072;BME280;60383;46.626;18.866;2022-10-16T09:27:20;101243.63;;;19.60;49.17
58072;BME280;60383;46.626;18.866;2022-10-16T09:29:45;101247.75;;;19.86;47.58
58072;BME280;60383;46.626;18.866;2022-10-16T09:32:17;101241.56;;;19.47;48.31
58072;BME280;60383;46.626;18.866;2022-10-16T09:34:54;101246.63;;;20.02;49.35
58072;BME280;60383;46.626;18.866;2022-10-16T09:37:22;101247.28;;;20.33;46.92
58072;BME280;60383;46.626;18.866;2022-10-16T09:39:51;101243.81;;;20.52;46.83
58072;BME280;60383;46.626;18.866;2022-10-16T09:42:22;101247.28;;;20.61;47.50
58072;BME280;60383;46.626;18.866;2022-10-16T09:44:51;101248.31;;;20.82;46.80
58072;BME280;60383;46.626;18.866;2022-10-16T09:47:21;101251.88;;;21.11;45.34
58072;BME280;60383;46.626;18.866;2022-10-16T09:50:20;101253.00;;;21.23;46.03
58072;BME280;60383;46.626;18.866;2022-10-16T09:52:46;101255.81;;;21.36;46.36
58072;BME280;60383;46.626;18.866;2022-10-16T09:55:17;101258.69;;;21.57;45.95
58072;BME280;60383;46.626;18.866;2022-10-16T09:57:51;101251.66;;;21.19;45.79
58072;BME280;60383;46.626;18.866;2022-10-16T10:00:17;101252.56;;;20.49;45.59
58072;BME280;60383;46.626;18.866;2022-10-16T10:02:43;101252.88;;;20.68;45.26
58072;BME280;60383;46.626;18.866;2022-10-16T10:05:26;101248.94;;;20.49;45.84
58072;BME280;60383;46.626;18.866;2022-10-16T10:08:00;101254.28;;;21.20;45.39
58072;BME280;60383;46.626;18.866;2022-10-16T10:10:32;101257.63;;;21.09;45.39
58072;BME280;60383;46.626;18.866;2022-10-16T10:12:58;101260.78;;;21.48;46.00
58072;BME280;60383;46.626;18.866;2022-10-16T10:15:25;101254.03;;;21.84;44.50
58072;BME280;60383;46.626;18.866;2022-10-16T10:17:55;101254.13;;;21.49;45.17
58072;BME280;60383;46.626;18.866;2022-10-16T10:20:30;101259.38;;;21.72;45.85
58072;BME280;60383;46.626;18.866;2022-10-16T10:22:59;101263.03;;;21.93;45.51
58072;BME280;60383;46.626;18.866;2022-10-16T10:25:52;101258.34;;;22.07;43.48
58072;BME280;60383;46.626;18.866;2022-10-16T10:33:51;101253.09;;;21.01;45.65
58072;BME280;60383;46.626;18.866;2022-10-16T10:36:40;101249.81;;;20.84;45.29
58072;BME280;60383;46.626;18.866;2022-10-16T10:39:30;101246.47;;;21.58;44.11
58072;BME280;60383;46.626;18.866;2022-10-16T10:42:21;101236.38;;;21.57;43.01
58072;BME280;60383;46.626;18.866;2022-10-16T10:50:41;101239.53;;;21.40;44.77
58072;BME280;60383;46.626;18.866;2022-10-16T10:53:33;101237.94;;;21.79;42.24
58072;BME280;60383;46.626;18.866;2022-10-16T10:58:55;101238.72;;;20.63;44.90
58072;BME280;60383;46.626;18.866;2022-10-16T11:07:32;101219.53;;;21.98;42.59
58072;BME280;60383;46.626;18.866;2022-10-16T11:10:24;101221.63;;;22.37;42.65
58072;BME280;60383;46.626;18.866;2022-10-16T11:12:57;101216.91;;;21.97;42.93
58072;BME280;60383;46.626;18.866;2022-10-16T11:15:29;101209.41;;;22.17;43.33
58072;BME280;60383;46.626;18.866;2022-10-16T11:18:24;101204.03;;;22.36;42.11
58072;BME280;60383;46.626;18.866;2022-10-16T11:20:54;101205.56;;;22.25;42.29
58072;BME280;60383;46.626;18.866;2022-10-16T11:25:51;101201.69;;;21.66;42.27
58072;BME280;60383;46.626;18.866;2022-10-16T11:28:33;101197.56;;;21.48;44.29
58072;BME280;60383;46.626;18.866;2022-10-16T11:31:10;101203.75;;;21.50;42.96
58072;BME280;60383;46.626;18.866;2022-10-16T11:34:05;101200.94;;;21.37;43.06
58072;BME280;60383;46.626;18.866;2022-10-16T11:36:44;101205.47;;;21.38;43.48
58072;BME280;60383;46.626;18.866;2022-10-16T11:44:26;101206.84;;;22.02;41.74
58072;BME280;60383;46.626;18.866;2022-10-16T11:49:32;101212.00;;;22.06;41.45
58072;BME280;60383;46.626;18.866;2022-10-16T11:52:28;101211.78;;;21.67;42.05
58072;BME280;60383;46.626;18.866;2022-10-16T11:55:02;101202.69;;;21.51;42.68
58072;BME280;60383;46.626;18.866;2022-10-16T11:57:37;101206.63;;;22.11;41.83
58072;BME280;60383;46.626;18.866;2022-10-16T12:05:58;101206.22;;;22.27;42.44
58072;BME280;60383;46.626;18.866;2022-10-16T12:08:15;101201.69;;;22.26;42.71
58072;BME280;60383;46.626;18.866;2022-10-16T12:10:44;101188.59;;;22.33;42.25
58072;BME280;60383;46.626;18.866;2022-10-16T12:13:34;101191.31;;;22.67;41.53
58072;BME280;60383;46.626;18.866;2022-10-16T12:16:20;101199.00;;;21.31;42.52
58072;BME280;60383;46.626;18.866;2022-10-16T12:18:48;101191.00;;;22.03;42.05
58072;BME280;60383;46.626;18.866;2022-10-16T12:21:16;101198.69;;;22.08;42.25
58072;BME280;60383;46.626;18.866;2022-10-16T12:23:52;101199.13;;;22.05;42.42
58072;BME280;60383;46.626;18.866;2022-10-16T12:28:51;101197.41;;;22.04;41.54
58072;BME280;60383;46.626;18.866;2022-10-16T12:31:18;101190.09;;;22.29;41.24
58072;BME280;60383;46.626;18.866;2022-10-16T12:34:01;101196.97;;;22.33;40.68
58072;BME280;60383;46.626;18.866;2022-10-16T12:36:31;101189.03;;;21.83;41.64
58072;BME280;60383;46.626;18.866;2022-10-16T12:38:58;101190.72;;;21.51;42.93
58072;BME280;60383;46.626;18.866;2022-10-16T12:41:31;101188.41;;;21.68;43.22
58072;BME280;60383;46.626;18.866;2022-10-16T12:43:57;101183.88;;;21.87;41.39
58072;BME280;60383;46.626;18.866;2022-10-16T12:51:42;101193.97;;;22.01;42.84
58072;BME280;60383;46.626;18.866;2022-10-16T12:54:18;101199.28;;;21.56;42.30
58072;BME280;60383;46.626;18.866;2022-10-16T12:59:54;101187.56;;;21.74;42.07
58072;BME280;60383;46.626;18.866;2022-10-16T13:05:30;101190.09;;;21.62;42.37
58072;BME280;60383;46.626;18.866;2022-10-16T13:29:20;101197.69;;;21.13;42.13
58072;BME280;60383;46.626;18.866;2022-10-16T13:31:47;101205.63;;;21.23;42.12
58072;BME280;60383;46.626;18.866;2022-10-16T13:34:17;101210.22;;;21.51;42.01
58072;BME280;60383;46.626;18.866;2022-10-16T13:36:46;101205.13;;;21.68;42.38
58072;BME280;60383;46.626;18.866;2022-10-16T13:41:38;101212.25;;;21.15;42.64
58072;BME280;60383;46.626;18.866;2022-10-16T13:44:05;101209.97;;;21.39;42.22
58072;BME280;60383;46.626;18.866;2022-10-16T13:46:38;101214.97;;;21.57;42.77
58072;BME280;60383;46.626;18.866;2022-10-16T13:49:13;101214.28;;;21.55;42.49
58072;BME280;60383;46.626;18.866;2022-10-16T13:51:40;101207.47;;;21.58;40.95
58072;BME280;60383;46.626;18.866;2022-10-16T13:54:09;101210.41;;;21.43;41.49
58072;BME280;60383;46.626;18.866;2022-10-16T13:56:35;101208.13;;;21.60;41.63
58072;BME280;60383;46.626;18.866;2022-10-16T13:59:06;101207.81;;;21.34;42.72
58072;BME280;60383;46.626;18.866;2022-10-16T14:01:41;101212.97;;;21.44;43.56
58072;BME280;60383;46.626;18.866;2022-10-16T14:04:11;101217.84;;;21.22;41.31
58072;BME280;60383;46.626;18.866;2022-10-16T14:06:43;101209.72;;;21.27;41.93
58072;BME280;60383;46.626;18.866;2022-10-16T14:09:28;101204.94;;;21.08;42.85
58072;BME280;60383;46.626;18.866;2022-10-16T14:11:57;101218.69;;;21.16;42.22
58072;BME280;60383;46.626;18.866;2022-10-16T14:14:27;101221.03;;;21.12;42.46
58072;BME280;60383;46.626;18.866;2022-10-16T14:16:57;101222.53;;;21.15;42.53
58072;BME280;60383;46.626;18.866;2022-10-16T14:19:28;101222.50;;;21.08;42.75
58072;BME280;60383;46.626;18.866;2022-10-16T14:21:55;101224.88;;;21.11;42.04
58072;BME280;60383;46.626;18.866;2022-10-16T14:24:47;101230.00;;;21.08;41.61
58072;BME280;60383;46.626;18.866;2022-10-16T14:27:34;101226.88;;;21.31;41.83
58072;BME280;60383;46.626;18.866;2022-10-16T14:30:21;101224.25;;;21.22;41.35
58072;BME280;60383;46.626;18.866;2022-10-16T14:33:23;101230.13;;;21.41;41.93